EW1382 Weather Reports


Display with metric or nautical units.
time (UTC)temp
F
wind
direction
speed
MPH
gust
MPH
rain 1hr
in
rain 24hr
in
rain mn
in
humidity
%
barometer
mb
20180220033241 47 136 6.0 10.0 0.01 0.22 0.22 93 1018.3
20180220031743 46 151 7.0 9.0 0.01 0.22 0.22 93 1018.4
20180220030237 46 160 5.0 9.0 0.00 0.21 0.21 93 1018.3
20180220024739 46 164 6.0 10.0 0.00 0.21 0.21 94 1018.2
20180220023227 46 155 6.0 11.0 0.00 0.21 0.21 94 1018.2
20180220021736 45 148 8.0 12.0 0.00 0.21 0.21 94 1018.2
20180220020244 45 167 7.0 9.0 0.00 0.21 0.21 94 1018.2
20180220014730 45 133 6.0 9.0 0.00 0.21 0.21 94 1018.3
20180220013239 44 150 6.0 11.0 0.00 0.21 0.21 95 1018.1
20180220011742 44 149 5.0 6.0 0.00 0.21 0.21 94 1018.0
20180220010235 44 134 4.0 7.0 0.01 0.21 0.21 94 1018.0
20180220004737 43 139 5.0 8.0 0.01 0.21 0.21 94 1017.9
20180220003231 43 142 5.0 7.0 0.03 0.21 0.21 94 1017.7
20180220001735 43 156 4.0 7.0 0.05 0.21 0.21 94 1017.9
20180220000228 43 129 3.0 8.0 0.06 0.20 0.20 94 1018.4
20180219234731 43 155 4.0 8.0 0.09 0.20 0.20 94 1018.6
20180219233240 42 143 5.0 9.0 0.09 0.18 0.18 94 1018.5
20180219231728 42 145 5.0 10.0 0.09 0.16 0.16 94 1018.5
20180219230237 41 124 5.0 10.0 0.09 0.14 0.14 93 1018.4
20180219224744 41 141 5.0 9.0 0.08 0.11 0.11 93 1018.7
20180219223233 41 134 4.0 8.0 0.07 0.09 0.09 92 1018.8
20180219221736 41 130 4.0 8.0 0.05 0.07 0.07 92 1018.7
20180219220228 41 148 6.0 9.0 0.03 0.05 0.05 91 1018.9
20180219214733 42 110 5.0 11.0 0.01 0.03 0.03 90 1018.5
20180219213246 42 145 8.0 12.0 0.00 0.02 0.02 90 1018.6
20180219211730 42 150 8.0 15.0 0.01 0.02 0.02 90 1018.5
20180219210239 42 163 8.0 15.0 0.01 0.02 0.02 90 1018.5
20180219204727 42 162 9.0 15.0 0.02 0.02 0.02 90 1018.5
20180219203236 42 160 9.0 14.0 0.02 0.02 0.02 90 1018.7
20180219201744 42 143 9.0 13.0 0.01 0.01 0.01 89 1019.0
20180219200233 42 122 9.0 15.0 0.01 0.01 0.01 87 1018.9
20180219194741 43 139 10.0 15.0 0.00 0.00 0.00 85 1019.1
20180219193227 43 146 10.0 16.0 0.00 0.00 0.00 82 1019.5
20180219191730 43 160 8.0 17.0 0.00 0.00 0.00 81 1019.8
20180219190244 43 148 10.0 16.0 0.00 0.00 0.00 81 1019.4
20180219184747 43 146 12.0 20.0 0.00 0.00 0.00 80 1019.2
20180219183240 43 186 11.0 18.0 0.00 0.00 0.00 80 1018.8
20180219181741 43 151 10.0 15.0 0.00 0.00 0.00 80 1019.4
20180219180228 43 166 11.0 18.0 0.00 0.00 0.00 79 1019.7
20180219174735 44 153 11.0 17.0 0.00 0.02 0.00 77 1019.7
20180219173244 45 147 10.0 19.0 0.00 0.02 0.00 75 1020.2
20180219171731 45 129 9.0 19.0 0.00 0.02 0.00 74 1020.0
20180219170240 45 148 9.0 18.0 0.00 0.02 0.00 75 1019.8
20180219164728 44 164 11.0 18.0 0.00 0.03 0.00 76 1019.9
20180219163238 44 145 8.0 19.0 0.00 0.03 0.00 75 1020.5
20180219160232 44 165 11.0 18.0 0.00 0.03 0.00 72 1021.1
20180219154737 44 158 11.0 20.0 0.00 0.03 0.00 71 1021.2
20180219153230 43 144 9.0 19.0 0.00 0.03 0.00 72 1021.6
20180219151733 43 156 8.0 15.0 0.00 0.03 0.00 71 1021.5
20180219150242 43 169 9.0 23.0 0.00 0.03 0.00 71 1021.5
20180219144728 42 147 12.0 18.0 0.00 0.03 0.00 73 1021.4
20180219143237 41 148 11.0 17.0 0.00 0.03 0.00 73 1021.5
20180219141745 41 161 11.0 21.0 0.00 0.03 0.00 73 1021.8
20180219140234 41 162 12.0 19.0 0.00 0.03 0.00 72 1022.3
20180219134738 41 199 13.0 19.0 0.00 0.03 0.00 72 1022.4
20180219133232 40 126 10.0 22.0 0.00 0.03 0.00 73 1022.4
20180219131736 40 148 10.0 17.0 0.00 0.03 0.00 74 1022.8
20180219130228 39 142 8.0 19.0 0.00 0.03 0.00 75 1022.4
20180219124733 38 161 11.0 15.0 0.00 0.03 0.00 75 1022.2
20180219123245 38 147 11.0 15.0 0.00 0.03 0.00 75 1022.4
20180219121728 38 153 10.0 15.0 0.00 0.03 0.00 76 1022.7
20180219120237 38 158 7.0 12.0 0.00 0.03 0.00 75 1023.1
20180219114746 37 153 10.0 14.0 0.00 0.03 0.00 75 1022.6
20180219113234 37 144 7.0 14.0 0.00 0.03 0.00 75 1022.4
20180219111743 37 142 8.0 12.0 0.00 0.03 0.00 74 1022.3
20180219110232 38 151 8.0 16.0 0.00 0.03 0.00 73 1022.2
20180219104737 38 124 9.0 15.0 0.00 0.03 0.00 73 1022.4
20180219103230 37 160 11.0 17.0 0.00 0.03 0.00 73 1022.3
20180219101735 37 139 10.0 16.0 0.00 0.03 0.00 74 1022.2
20180219100228 36 161 8.0 13.0 0.00 0.03 0.00 75 1022.4
20180219094731 35 154 8.0 12.0 0.00 0.03 0.00 75 1022.7
20180219093245 34 167 7.0 12.0 0.00 0.03 0.00 75 1022.5
20180219091737 34 143 7.0 12.0 0.00 0.03 0.00 75 1022.7
20180219090236 34 114 5.0 12.0 0.00 0.03 0.00 74 1022.7
20180219084743 34 113 9.0 13.0 0.00 0.03 0.00 74 1022.8
20180219083232 34 152 7.0 11.0 0.00 0.03 0.00 75 1023.1
20180219081740 34 124 8.0 13.0 0.00 0.03 0.00 75 1023.3
20180219080229 34 152 8.0 11.0 0.00 0.03 0.00 75 1023.4
20180219074733 33 145 7.0 11.0 0.00 0.03 0.00 76 1023.5
20180219073246 33 153 5.0 8.0 0.00 0.03 0.00 75 1024.3
20180219071731 33 146 5.0 10.0 0.00 0.03 0.00 76 1024.1
20180219070245 33 153 5.0 11.0 0.00 0.03 0.00 77 1024.0
20180219064729 32 124 5.0 8.0 0.00 0.03 0.00 78 1024.0
20180219063242 32 113 3.0 6.0 0.00 0.03 0.00 78 1024.4
20180219061745 31 148 3.0 7.0 0.00 0.03 0.00 78 1024.7
20180219060233 31 146 5.0 10.0 0.00 0.03 0.00 79 1025.1
20180219054741 31 148 6.0 10.0 0.00 0.03 0.00 80 1025.1
20180219053228 30 131 3.0 6.0 0.00 0.03 0.00 80 1025.2
20180219051735 30 150 4.0 8.0 0.00 0.03 0.00 81 1025.1
20180219050242 30 148 3.0 8.0 0.00 0.03 0.00 81 1025.2
20180219044747 30 131 4.0 6.0 0.00 0.03 0.03 81 1025.6
20180219043239 30 131 6.0 9.0 0.00 0.03 0.03 80 1025.7
20180219041743 30 119 6.0 10.0 0.00 0.03 0.03 80 1025.9
20180219040236 30 120 5.0 8.0 0.00 0.03 0.03 79 1026.4
20180219034741 30 144 2.0 5.0 0.00 0.03 0.03 78 1026.8